createdAt,value
2023-03-31T00:00:29.034Z,99417.72
2023-03-31T00:02:58.649Z,99403.69
2023-03-31T00:05:26.285Z,99398.72
2023-03-31T00:07:55.326Z,99398.87
2023-03-31T00:10:23.634Z,99395.00
2023-03-31T00:12:51.265Z,99404.03
2023-03-31T00:15:18.625Z,99398.13
2023-03-31T00:17:47.393Z,99402.00
2023-03-31T00:20:14.912Z,99394.16
2023-03-31T00:22:42.486Z,99393.72
2023-03-31T00:25:11.179Z,99390.47
2023-03-31T00:27:38.721Z,99395.38
2023-03-31T00:30:06.849Z,99398.66
2023-03-31T00:32:34.480Z,99393.66
2023-03-31T00:35:02.469Z,99392.03
2023-03-31T00:37:30.274Z,99397.34
2023-03-31T00:39:58.313Z,99398.13
2023-03-31T00:42:25.843Z,99386.31
2023-03-31T00:45:14.576Z,99380.53
2023-03-31T00:48:11.281Z,99393.63
2023-03-31T00:50:45.612Z,99392.25
2023-03-31T00:53:14.314Z,99386.91
2023-03-31T00:56:03.180Z,99378.81
2023-03-31T00:58:33.346Z,99390.53
2023-03-31T01:01:02.423Z,99386.47
2023-03-31T01:03:33.250Z,99392.53
2023-03-31T01:06:05.961Z,99381.75
2023-03-31T01:08:36.640Z,99379.53
2023-03-31T01:11:08.322Z,99381.50
2023-03-31T01:13:36.671Z,99372.00
2023-03-31T01:16:04.578Z,99370.03
2023-03-31T01:18:35.025Z,99377.31
2023-03-31T01:21:14.645Z,99377.28
2023-03-31T01:24:13.166Z,99371.78
2023-03-31T01:26:47.673Z,99379.69
2023-03-31T01:29:52.842Z,99379.50
2023-03-31T01:33:01.743Z,99383.44
2023-03-31T01:35:51.529Z,99385.41
2023-03-31T01:38:53.111Z,99378.66
2023-03-31T01:41:58.206Z,99378.59
2023-03-31T01:44:57.618Z,99374.09
2023-03-31T01:47:32.928Z,99380.91
2023-03-31T01:50:08.883Z,99385.41
2023-03-31T01:52:47.135Z,99380.34
2023-03-31T01:55:35.862Z,99382.75
2023-03-31T01:58:07.818Z,99382.50
2023-03-31T02:00:42.141Z,99381.88
2023-03-31T02:03:16.979Z,99381.38
2023-03-31T02:05:47.719Z,99383.03
2023-03-31T02:08:19.886Z,99376.72
2023-03-31T02:10:47.262Z,99375.59
2023-03-31T02:13:14.899Z,99380.47
2023-03-31T02:15:44.069Z,99384.41
2023-03-31T02:18:12.425Z,99376.09
2023-03-31T02:20:43.727Z,99371.72
2023-03-31T02:23:12.525Z,99371.88
2023-03-31T02:25:47.718Z,99366.59
2023-03-31T02:28:19.503Z,99363.50
2023-03-31T02:31:02.913Z,99366.16
2023-03-31T02:33:30.270Z,99366.41
2023-03-31T02:35:59.125Z,99360.16
2023-03-31T02:38:27.136Z,99358.69
2023-03-31T02:40:54.615Z,99352.00
2023-03-31T02:43:22.243Z,99349.69
2023-03-31T02:45:50.874Z,99356.47
2023-03-31T02:48:26.658Z,99360.34
2023-03-31T02:50:54.108Z,99364.00
2023-03-31T02:53:41.596Z,99356.41
2023-03-31T02:56:24.398Z,99356.00
2023-03-31T02:59:10.700Z,99360.50
2023-03-31T03:02:04.424Z,99358.59
2023-03-31T03:04:50.247Z,99361.53
2023-03-31T03:07:26.725Z,99369.47
2023-03-31T03:10:10.074Z,99363.31
2023-03-31T03:13:06.468Z,99359.06
2023-03-31T03:15:34.593Z,99358.75
2023-03-31T03:18:02.194Z,99358.88
2023-03-31T03:20:29.527Z,99356.62
2023-03-31T03:22:56.884Z,99359.22
2023-03-31T03:25:24.518Z,99351.94
2023-03-31T03:27:53.193Z,99354.03
2023-03-31T03:30:20.717Z,99357.50
2023-03-31T03:32:48.363Z,99355.44
2023-03-31T03:35:15.829Z,99345.19
2023-03-31T03:37:43.203Z,99347.03
2023-03-31T03:40:11.186Z,99342.78
2023-03-31T03:42:38.695Z,99340.38
2023-03-31T03:45:06.471Z,99334.62
2023-03-31T03:47:34.044Z,99335.34
2023-03-31T03:50:01.494Z,99348.31
2023-03-31T03:52:28.895Z,99356.44
2023-03-31T03:54:56.530Z,99355.19
2023-03-31T03:57:23.972Z,99353.19
2023-03-31T03:59:51.414Z,99359.28
2023-03-31T04:02:19.119Z,99356.06
2023-03-31T04:04:47.886Z,99340.19
2023-03-31T04:07:15.529Z,99341.34
2023-03-31T04:09:42.872Z,99336.31
2023-03-31T04:12:10.514Z,99325.59
2023-03-31T04:14:37.883Z,99323.78
2023-03-31T04:17:05.262Z,99325.63
2023-03-31T04:19:32.892Z,99323.91
2023-03-31T04:22:02.906Z,99321.69
2023-03-31T04:24:33.794Z,99332.19
2023-03-31T04:27:02.885Z,99333.94
2023-03-31T04:29:33.687Z,99327.44
2023-03-31T04:32:01.612Z,99328.03
2023-03-31T04:34:35.078Z,99329.41
2023-03-31T04:37:03.516Z,99334.06
2023-03-31T04:39:30.962Z,99331.03
2023-03-31T04:41:58.935Z,99332.34
2023-03-31T04:44:27.157Z,99336.16
2023-03-31T04:46:54.797Z,99331.50
2023-03-31T04:49:22.270Z,99333.84
2023-03-31T04:51:49.930Z,99329.78
2023-03-31T04:54:17.341Z,99321.41
2023-03-31T04:56:44.806Z,99317.22
2023-03-31T04:59:12.466Z,99313.66
2023-03-31T05:01:44.994Z,99313.19
2023-03-31T05:04:12.769Z,99305.34
2023-03-31T05:06:40.235Z,99311.69
2023-03-31T05:09:09.653Z,99306.41
2023-03-31T05:11:38.348Z,99299.28
2023-03-31T05:14:05.811Z,99301.97
2023-03-31T05:16:33.260Z,99299.37
2023-03-31T05:19:00.998Z,99296.03
2023-03-31T05:21:30.526Z,99294.81
2023-03-31T05:23:57.976Z,99298.53
2023-03-31T05:26:25.782Z,99297.78
2023-03-31T05:28:53.586Z,99296.91
2023-03-31T05:31:21.199Z,99291.34
2023-03-31T05:33:48.907Z,99290.31
2023-03-31T05:36:17.169Z,99285.28
2023-03-31T05:38:44.548Z,99289.94
2023-03-31T05:41:12.300Z,99294.34
2023-03-31T05:43:40.044Z,99298.97
2023-03-31T05:46:08.201Z,99291.03
2023-03-31T05:48:37.581Z,99288.31
2023-03-31T05:51:05.048Z,99280.25
2023-03-31T05:53:32.488Z,99285.31
2023-03-31T05:56:01.899Z,99282.47
2023-03-31T05:58:29.523Z,99283.72
2023-03-31T06:01:06.355Z,99281.66
2023-03-31T06:03:35.104Z,99274.03
2023-03-31T06:06:02.673Z,99272.19
2023-03-31T06:08:30.066Z,99270.50
2023-03-31T06:10:57.891Z,99269.22
2023-03-31T06:13:25.325Z,99264.47
2023-03-31T06:15:56.982Z,99255.53
2023-03-31T06:18:24.917Z,99257.00
2023-03-31T06:20:52.706Z,99256.28
2023-03-31T06:23:20.240Z,99257.06
2023-03-31T06:25:51.386Z,99257.22
2023-03-31T06:28:20.280Z,99254.09
2023-03-31T06:30:47.953Z,99250.75
2023-03-31T06:33:16.430Z,99246.81
2023-03-31T06:35:43.816Z,99248.66
2023-03-31T06:38:11.561Z,99250.22
2023-03-31T06:40:38.998Z,99252.84
2023-03-31T06:43:06.397Z,99248.06
2023-03-31T06:45:34.018Z,99266.00
2023-03-31T06:48:01.655Z,99259.53
2023-03-31T06:50:29.094Z,99259.88
2023-03-31T06:52:56.747Z,99265.41
2023-03-31T06:55:24.169Z,99266.38
2023-03-31T06:57:51.589Z,99265.06
2023-03-31T07:00:21.585Z,99266.97
2023-03-31T07:02:50.612Z,99266.19
2023-03-31T07:05:18.587Z,99260.81
2023-03-31T07:07:46.529Z,99255.53
2023-03-31T07:10:14.038Z,99257.31
2023-03-31T07:12:41.577Z,99253.97
2023-03-31T07:15:09.508Z,99244.75
2023-03-31T07:17:37.616Z,99246.03
2023-03-31T07:20:10.239Z,99251.28
2023-03-31T07:22:37.908Z,99239.97
2023-03-31T07:25:05.646Z,99231.97
2023-03-31T07:27:33.061Z,99229.66
2023-03-31T07:30:00.713Z,99223.47
2023-03-31T07:32:29.129Z,99214.34
2023-03-31T07:34:56.814Z,99217.28
2023-03-31T07:37:24.502Z,99212.31
2023-03-31T07:39:51.929Z,99207.25
2023-03-31T07:42:19.298Z,99207.03
2023-03-31T07:44:46.988Z,99216.75
2023-03-31T07:47:14.384Z,99214.22
2023-03-31T07:49:41.765Z,99207.78
2023-03-31T07:52:09.377Z,99214.34
2023-03-31T07:54:36.960Z,99202.66
2023-03-31T07:57:06.229Z,99202.97
2023-03-31T07:59:33.992Z,99204.06
2023-03-31T08:02:01.731Z,99201.78
2023-03-31T08:04:29.537Z,99193.09
2023-03-31T08:06:57.774Z,99197.84
2023-03-31T08:09:25.172Z,99181.72
2023-03-31T08:11:52.817Z,99177.28
2023-03-31T08:14:30.316Z,99178.34
2023-03-31T08:17:05.980Z,99169.09
2023-03-31T08:19:33.438Z,99172.03
2023-03-31T08:22:01.065Z,99173.78
2023-03-31T08:24:28.833Z,99173.09
2023-03-31T08:26:56.410Z,99167.12
2023-03-31T08:29:23.789Z,99161.75
2023-03-31T08:31:52.043Z,99158.94
2023-03-31T08:34:19.414Z,99145.63
2023-03-31T08:36:47.411Z,99146.91
2023-03-31T08:39:15.010Z,99142.34
2023-03-31T08:41:58.540Z,99136.78
2023-03-31T08:44:38.680Z,99137.41
2023-03-31T08:47:07.958Z,99125.97
2023-03-31T08:49:41.755Z,99116.84
2023-03-31T08:52:12.890Z,99112.69
2023-03-31T08:54:47.737Z,99105.59
2023-03-31T08:57:25.270Z,99111.25
2023-03-31T08:59:52.989Z,99099.91
2023-03-31T09:03:07.394Z,99100.75
2023-03-31T09:05:59.347Z,99101.84
2023-03-31T09:08:38.154Z,99089.13
2023-03-31T09:11:20.089Z,99094.63
2023-03-31T09:14:17.622Z,99094.87
2023-03-31T09:16:48.022Z,99084.81
2023-03-31T09:19:18.767Z,99083.50
2023-03-31T09:21:51.714Z,99072.97
2023-03-31T09:24:21.422Z,99084.06
2023-03-31T09:26:57.276Z,99076.75
2023-03-31T09:29:31.460Z,99073.06
2023-03-31T09:32:07.133Z,99069.63
2023-03-31T09:34:34.600Z,99062.84
2023-03-31T09:37:02.232Z,99058.81
2023-03-31T09:39:29.685Z,99047.50
2023-03-31T09:41:57.036Z,99046.91
2023-03-31T09:44:32.105Z,99038.16
2023-03-31T09:46:59.615Z,99038.66
2023-03-31T09:49:28.370Z,99037.56
2023-03-31T09:52:21.748Z,99034.41
2023-03-31T09:54:53.363Z,99036.22
2023-03-31T09:57:27.338Z,99031.00
2023-03-31T10:00:02.278Z,99032.09
2023-03-31T10:02:42.514Z,99020.16
2023-03-31T10:05:31.649Z,99015.25
2023-03-31T10:08:28.260Z,99015.59
2023-03-31T10:10:56.642Z,99002.28
2023-03-31T10:13:25.937Z,99010.47
2023-03-31T10:15:54.613Z,98989.34
2023-03-31T10:18:22.411Z,98986.41
2023-03-31T10:20:51.601Z,98982.56
2023-03-31T10:23:30.569Z,98990.06
2023-03-31T10:25:58.417Z,98989.44
2023-03-31T10:28:25.952Z,98973.25
2023-03-31T10:30:57.932Z,98967.72
2023-03-31T10:33:27.121Z,98973.50
2023-03-31T10:35:56.011Z,98962.56
2023-03-31T10:38:27.729Z,98961.72
2023-03-31T10:40:56.558Z,98955.28
2023-03-31T10:43:34.779Z,98946.28
2023-03-31T10:46:02.427Z,98949.87
2023-03-31T10:48:31.581Z,98953.91
2023-03-31T10:51:00.632Z,98947.78
2023-03-31T10:53:28.408Z,98940.84
2023-03-31T10:56:04.290Z,98941.41
2023-03-31T10:58:54.771Z,98941.09
2023-03-31T11:01:33.016Z,98926.66
2023-03-31T11:04:03.610Z,98930.41
2023-03-31T11:06:39.415Z,98935.03
2023-03-31T11:09:35.535Z,98930.53
2023-03-31T11:12:36.534Z,98930.12
2023-03-31T11:15:09.959Z,98926.56
2023-03-31T11:18:22.092Z,98922.81
2023-03-31T11:20:58.619Z,98924.81
2023-03-31T11:23:41.777Z,98914.84
2023-03-31T11:26:16.667Z,98910.22
2023-03-31T11:29:16.498Z,98899.00
2023-03-31T11:31:52.652Z,98888.34
2023-03-31T11:34:44.358Z,98864.44
2023-03-31T11:37:18.261Z,98852.00
2023-03-31T11:39:57.811Z,98840.69
2023-03-31T11:42:32.940Z,98831.72
2023-03-31T11:45:03.488Z,98827.59
2023-03-31T11:47:32.490Z,98824.06
2023-03-31T11:50:03.067Z,98821.63
2023-03-31T11:52:33.070Z,98816.53
2023-03-31T11:55:21.804Z,98804.34
2023-03-31T11:58:34.048Z,98797.34
2023-03-31T12:01:17.888Z,98794.63
2023-03-31T12:03:54.311Z,98794.09
2023-03-31T12:06:22.201Z,98781.91
2023-03-31T12:09:06.473Z,98778.69
2023-03-31T12:11:39.099Z,98780.25
2023-03-31T12:14:21.171Z,98787.63
2023-03-31T12:17:05.705Z,98785.69
2023-03-31T12:19:42.340Z,98776.19
2023-03-31T12:22:44.332Z,98772.41
2023-03-31T12:25:13.064Z,98772.78
2023-03-31T12:27:44.366Z,98780.25
2023-03-31T12:30:18.131Z,98773.22
2023-03-31T12:32:52.261Z,98769.69
2023-03-31T12:35:24.460Z,98767.66
2023-03-31T12:37:54.606Z,98766.87
2023-03-31T12:40:31.728Z,98767.41
2023-03-31T12:43:41.241Z,98750.56
2023-03-31T12:46:40.572Z,98749.31
2023-03-31T12:49:17.249Z,98733.19
2023-03-31T12:51:57.534Z,98729.03
2023-03-31T12:54:49.048Z,98724.22
2023-03-31T12:57:23.500Z,98725.78
2023-03-31T13:00:12.661Z,98719.53
2023-03-31T13:02:40.920Z,98726.97
2023-03-31T13:05:37.675Z,98722.16
2023-03-31T13:08:06.258Z,98720.87
2023-03-31T13:10:33.881Z,98726.66
2023-03-31T13:13:13.946Z,98705.63
2023-03-31T13:15:52.931Z,98707.22
2023-03-31T13:18:21.058Z,98693.16
2023-03-31T13:20:58.783Z,98696.00
2023-03-31T13:23:26.262Z,98686.09
2023-03-31T13:25:54.824Z,98682.31
2023-03-31T13:28:22.116Z,98675.91
2023-03-31T13:30:56.335Z,98672.81
2023-03-31T13:33:45.731Z,98666.03
2023-03-31T13:36:34.341Z,98668.34
2023-03-31T13:39:26.916Z,98662.41
2023-03-31T13:42:12.830Z,98642.66
2023-03-31T13:45:21.302Z,98621.09
2023-03-31T13:48:16.910Z,98616.75
2023-03-31T13:51:03.294Z,98610.34
2023-03-31T13:53:45.950Z,98619.53
2023-03-31T13:56:28.670Z,98619.31
2023-03-31T13:59:18.050Z,98622.09
2023-03-31T14:02:00.891Z,98610.38
2023-03-31T14:04:51.066Z,98609.34
2023-03-31T14:07:34.843Z,98598.87
2023-03-31T14:10:04.383Z,98586.56
2023-03-31T14:12:36.406Z,98586.50
2023-03-31T14:15:05.675Z,98578.94
2023-03-31T14:17:39.861Z,98571.34
2023-03-31T14:20:39.407Z,98569.63
2023-03-31T14:23:15.955Z,98562.72
2023-03-31T14:25:53.572Z,98547.53
2023-03-31T14:28:37.370Z,98542.59
2023-03-31T14:31:20.827Z,98541.62
2023-03-31T14:34:17.204Z,98530.34
2023-03-31T14:37:00.280Z,98524.25
2023-03-31T14:39:31.192Z,98523.34
2023-03-31T14:42:39.786Z,98518.41
2023-03-31T14:45:16.498Z,98511.94
2023-03-31T14:47:54.082Z,98511.12
2023-03-31T14:50:21.534Z,98506.03
2023-03-31T14:52:50.889Z,98512.81
2023-03-31T14:55:21.732Z,98509.56
2023-03-31T14:57:51.108Z,98508.44
2023-03-31T15:00:32.137Z,98505.75
2023-03-31T15:03:01.129Z,98509.88
2023-03-31T15:05:35.600Z,98511.78
2023-03-31T15:08:05.021Z,98515.22
2023-03-31T15:10:45.647Z,98509.34
2023-03-31T15:13:17.081Z,98504.94
2023-03-31T15:15:46.295Z,98508.09
2023-03-31T15:18:15.316Z,98501.03
2023-03-31T15:20:43.825Z,98509.38
2023-03-31T15:23:30.460Z,98517.66
2023-03-31T15:25:59.259Z,98520.19
2023-03-31T15:28:28.648Z,98522.34
2023-03-31T15:31:07.284Z,98523.06
2023-03-31T15:33:41.752Z,98513.69
2023-03-31T15:36:11.843Z,98497.19
2023-03-31T15:38:39.481Z,98498.06
2023-03-31T15:41:13.844Z,98479.19
2023-03-31T15:43:42.054Z,98470.41
2023-03-31T15:46:11.138Z,98472.75
2023-03-31T15:48:48.963Z,98468.50
2023-03-31T15:51:24.603Z,98473.94
2023-03-31T15:53:56.217Z,98467.53
2023-03-31T15:56:33.739Z,98467.34
2023-03-31T15:59:04.675Z,98461.84
2023-03-31T16:01:41.799Z,98458.22
2023-03-31T16:04:10.570Z,98460.56
2023-03-31T16:06:53.160Z,98467.50
2023-03-31T16:09:24.480Z,98464.38
2023-03-31T16:11:58.867Z,98464.31
2023-03-31T16:14:28.474Z,98475.44
2023-03-31T16:16:59.004Z,98464.59
2023-03-31T16:19:27.263Z,98459.22
2023-03-31T16:21:55.372Z,98459.41
2023-03-31T16:24:22.844Z,98467.22
2023-03-31T16:26:50.478Z,98464.16
2023-03-31T16:29:21.991Z,98467.31
2023-03-31T16:31:49.715Z,98466.91
2023-03-31T16:34:17.541Z,98473.41
2023-03-31T16:36:45.366Z,98486.00
2023-03-31T16:39:13.131Z,98494.88
2023-03-31T16:41:40.498Z,98497.03
2023-03-31T16:44:07.891Z,98497.72
2023-03-31T16:46:35.575Z,98510.25
2023-03-31T16:49:03.044Z,98506.56
2023-03-31T16:51:30.465Z,98515.47
2023-03-31T16:53:59.379Z,98514.50
2023-03-31T16:56:27.220Z,98507.34
2023-03-31T16:58:55.143Z,98502.00
2023-03-31T17:01:22.834Z,98508.03
2023-03-31T17:03:50.595Z,98507.19
2023-03-31T17:06:18.129Z,98497.81
2023-03-31T17:08:45.760Z,98496.97
2023-03-31T17:11:14.185Z,98502.06
2023-03-31T17:13:42.510Z,98509.25
2023-03-31T17:16:20.204Z,98511.16
2023-03-31T17:18:52.940Z,98515.03
2023-03-31T17:21:20.772Z,98506.28
2023-03-31T17:23:48.411Z,98510.06
2023-03-31T17:26:16.031Z,98506.16
2023-03-31T17:28:43.768Z,98504.12
2023-03-31T17:31:18.185Z,98499.97
2023-03-31T17:33:46.267Z,98493.81
2023-03-31T17:36:13.658Z,98484.87
2023-03-31T17:38:42.080Z,98487.84
2023-03-31T17:41:11.427Z,98473.62
2023-03-31T17:43:39.042Z,98473.69
2023-03-31T17:46:09.942Z,98467.34
2023-03-31T17:48:39.172Z,98470.84
2023-03-31T17:51:07.739Z,98476.72
2023-03-31T17:53:35.713Z,98477.34
2023-03-31T17:56:03.912Z,98487.91
2023-03-31T17:58:31.313Z,98492.87
2023-03-31T18:00:58.824Z,98494.38
2023-03-31T18:03:29.564Z,98491.13
2023-03-31T18:05:57.158Z,98504.59
2023-03-31T18:08:24.522Z,98515.66
2023-03-31T18:10:52.157Z,98501.28
2023-03-31T18:13:19.502Z,98505.91
2023-03-31T18:15:49.116Z,98495.62
2023-03-31T18:18:17.246Z,98501.28
2023-03-31T18:20:44.688Z,98506.03
2023-03-31T18:23:12.197Z,98501.28
2023-03-31T18:25:43.967Z,98498.22
2023-03-31T18:28:14.750Z,98495.81
2023-03-31T18:30:43.378Z,98500.13
2023-03-31T18:33:11.504Z,98497.94
2023-03-31T18:35:39.270Z,98496.97
2023-03-31T18:38:07.241Z,98504.44
2023-03-31T18:40:34.636Z,98525.78
2023-03-31T18:43:02.650Z,98526.47
2023-03-31T18:45:30.856Z,98529.87
2023-03-31T18:47:58.444Z,98532.31
2023-03-31T18:50:26.012Z,98527.34
2023-03-31T18:52:54.701Z,98521.50
2023-03-31T18:55:22.363Z,98523.75
2023-03-31T18:57:49.856Z,98527.22
2023-03-31T19:00:17.815Z,98538.00
2023-03-31T19:02:45.402Z,98545.19
2023-03-31T19:05:12.853Z,98545.28
2023-03-31T19:07:41.036Z,98553.66
2023-03-31T19:10:08.837Z,98559.97
2023-03-31T19:12:36.232Z,98553.19
2023-03-31T19:15:04.163Z,98550.94
2023-03-31T19:17:31.823Z,98559.53
2023-03-31T19:19:59.209Z,98552.50
2023-03-31T19:22:27.768Z,98555.31
2023-03-31T19:24:55.202Z,98552.94
2023-03-31T19:27:23.081Z,98556.28
2023-03-31T19:29:50.901Z,98551.84
2023-03-31T19:32:18.284Z,98549.62
2023-03-31T19:34:46.301Z,98550.19
2023-03-31T19:37:13.906Z,98550.63
2023-03-31T19:39:41.467Z,98555.91
2023-03-31T19:42:08.841Z,98542.38
2023-03-31T19:44:36.534Z,98554.72
2023-03-31T19:47:03.974Z,98560.13
2023-03-31T19:49:31.577Z,98554.34
2023-03-31T19:51:59.330Z,98555.34
2023-03-31T19:54:26.704Z,98564.72
2023-03-31T19:56:54.130Z,98558.41
2023-03-31T19:59:21.831Z,98562.16
2023-03-31T20:01:49.340Z,98553.78
2023-03-31T20:04:18.250Z,98548.44
2023-03-31T20:06:47.559Z,98550.53
2023-03-31T20:09:15.622Z,98545.41
2023-03-31T20:11:43.525Z,98549.69
2023-03-31T20:14:11.208Z,98550.31
2023-03-31T20:16:38.638Z,98544.78
2023-03-31T20:19:06.297Z,98548.88
2023-03-31T20:21:35.732Z,98538.84
2023-03-31T20:24:03.463Z,98538.66
2023-03-31T20:26:31.575Z,98540.69
2023-03-31T20:29:01.707Z,98534.16
2023-03-31T20:31:30.831Z,98530.06
2023-03-31T20:33:58.544Z,98531.09
2023-03-31T20:36:29.143Z,98525.75
2023-03-31T20:38:57.125Z,98523.94
2023-03-31T20:41:27.237Z,98508.00
2023-03-31T20:43:55.112Z,98506.13
2023-03-31T20:46:22.802Z,98501.66
2023-03-31T20:48:51.879Z,98495.72
2023-03-31T20:51:24.664Z,98502.88
2023-03-31T20:53:53.181Z,98506.53
2023-03-31T20:56:22.323Z,98500.41
2023-03-31T20:58:49.877Z,98497.34
2023-03-31T21:01:18.199Z,98493.25
2023-03-31T21:03:45.962Z,98494.28
2023-03-31T21:06:14.242Z,98495.06
2023-03-31T21:08:42.776Z,98491.84
2023-03-31T21:11:10.146Z,98490.16
2023-03-31T21:13:37.541Z,98493.41
2023-03-31T21:16:06.843Z,98484.47
2023-03-31T21:18:34.609Z,98481.00
2023-03-31T21:21:03.543Z,98477.09
2023-03-31T21:23:31.235Z,98460.47
2023-03-31T21:26:00.046Z,98459.53
2023-03-31T21:28:29.021Z,98450.81
2023-03-31T21:31:04.512Z,98455.50
2023-03-31T21:33:32.175Z,98447.31
2023-03-31T21:35:59.826Z,98441.16
2023-03-31T21:38:28.510Z,98445.69
2023-03-31T21:40:56.443Z,98444.88
2023-03-31T21:43:24.087Z,98447.59
2023-03-31T21:45:53.426Z,98450.25
2023-03-31T21:48:25.025Z,98457.62
2023-03-31T21:50:54.662Z,98454.37
2023-03-31T21:53:22.559Z,98454.25
2023-03-31T21:55:55.382Z,98457.28
2023-03-31T21:58:25.220Z,98450.16
2023-03-31T22:00:52.658Z,98460.44
2023-03-31T22:03:27.015Z,98455.00
2023-03-31T22:05:58.135Z,98457.81
2023-03-31T22:08:27.163Z,98460.69
2023-03-31T22:10:54.763Z,98458.25
2023-03-31T22:13:22.246Z,98449.44
2023-03-31T22:15:49.883Z,98445.28
2023-03-31T22:18:17.474Z,98436.47
2023-03-31T22:20:45.399Z,98436.66
2023-03-31T22:23:13.129Z,98446.72
2023-03-31T22:25:40.572Z,98432.38
2023-03-31T22:28:07.927Z,98435.25
2023-03-31T22:30:35.761Z,98447.72
2023-03-31T22:33:03.164Z,98432.78
2023-03-31T22:35:30.698Z,98433.28
2023-03-31T22:37:58.434Z,98435.22
2023-03-31T22:40:25.775Z,98429.69
2023-03-31T22:42:54.794Z,98426.13
2023-03-31T22:45:22.456Z,98433.56
2023-03-31T22:47:49.886Z,98436.22
2023-03-31T22:50:17.397Z,98432.25
2023-03-31T22:52:46.030Z,98419.12
2023-03-31T22:55:13.413Z,98425.28
2023-03-31T22:57:40.889Z,98426.62
2023-03-31T23:00:09.258Z,98430.94
2023-03-31T23:02:36.676Z,98421.81
2023-03-31T23:05:04.188Z,98422.28
2023-03-31T23:07:31.757Z,98412.22
2023-03-31T23:09:59.105Z,98411.94
2023-03-31T23:12:26.992Z,98405.84
2023-03-31T23:14:54.692Z,98409.06
2023-03-31T23:17:22.082Z,98406.03
2023-03-31T23:19:49.460Z,98401.69
2023-03-31T23:22:17.091Z,98408.09
2023-03-31T23:24:44.477Z,98400.37
2023-03-31T23:27:11.860Z,98406.41
2023-03-31T23:29:39.505Z,98416.84
2023-03-31T23:32:06.883Z,98415.72
2023-03-31T23:34:34.329Z,98423.59
2023-03-31T23:37:01.996Z,98429.56
2023-03-31T23:39:29.325Z,98430.91
2023-03-31T23:41:57.209Z,98434.25
2023-03-31T23:44:24.932Z,98438.28
2023-03-31T23:46:52.312Z,98423.25
2023-03-31T23:49:19.643Z,98422.19
2023-03-31T23:51:47.314Z,98417.41
2023-03-31T23:54:14.672Z,98411.84
2023-03-31T23:56:42.066Z,98413.66
2023-03-31T23:59:09.682Z,98404.91
